Time;durP1;ratioP1;P1;durP2;ratioP2;P2;SDS_P1;SDS_P2;PMS_P1;PMS_P2;Temp;Humidity;BMP_temperature;BMP_pressure;BME280_temperature;BME280_humidity;BME280_pressure;Samples;Min_cycle;Max_cycle;Signal;HPM_P1;HPM_P2
2021/10/21 00:01:15;;;;;;;;;;;12.10;99.90;;;;;;5068261;28;19977;-66
2021/10/21 00:03:40;;;;;;;;;;;12.10;99.90;;;;;;5068332;28;20435;-65
2021/10/21 00:06:06;;;;;;;;;;;12.10;99.90;;;;;;5050648;28;19955;-65
2021/10/21 00:08:31;;;;;;;;;;;12.10;99.90;;;;;;5069055;28;19975;-65
2021/10/21 00:10:57;;;;;;;;;;;12.10;99.90;;;;;;5068912;28;20672;-65
2021/10/21 00:13:23;;;;;;;;;;;12.10;99.90;;;;;;5072690;28;19923;-65
2021/10/21 00:15:49;;;;;;;;;;;12.20;99.90;;;;;;5072056;28;20014;-65
2021/10/21 00:18:14;;;;;;;;;;;12.20;99.90;;;;;;5073672;28;20007;-66
2021/10/21 00:20:40;;;;;;;;;;;12.20;99.90;;;;;;5070819;28;20350;-65
2021/10/21 00:23:05;;;;;;;;;;;12.20;99.90;;;;;;5072310;28;19916;-65
2021/10/21 00:25:31;;;;;;;;;;;12.20;99.90;;;;;;5071874;28;19924;-65
2021/10/21 00:27:56;;;;;;;;;;;12.30;99.90;;;;;;5071440;28;19923;-65
2021/10/21 00:30:22;;;;;;;;;;;12.30;99.90;;;;;;5075057;28;19961;-65
2021/10/21 00:32:47;;;;;;;;;;;12.30;99.90;;;;;;5072988;28;19923;-65
2021/10/21 00:35:13;;;;;;;;;;;12.40;99.90;;;;;;5074599;28;19916;-65
2021/10/21 00:37:39;;;;;;;;;;;12.40;99.90;;;;;;5073018;28;19958;-66
2021/10/21 00:40:05;;;;;;;;;;;12.50;99.90;;;;;;5074495;28;20022;-66
2021/10/21 00:42:31;;;;;;;;;;;12.50;99.90;;;;;;5073127;28;19920;-66
2021/10/21 00:44:57;;;;;;;;;;;12.50;99.90;;;;;;5072104;28;19939;-65
2021/10/21 00:47:22;;;;;;;;;;;12.50;99.90;;;;;;5073182;28;19916;-65
2021/10/21 00:49:48;;;;;;;;;;;12.50;99.90;;;;;;5074712;28;19916;-65
2021/10/21 00:52:13;;;;;;;;;;;12.60;99.90;;;;;;5070426;28;20007;-65
2021/10/21 00:54:39;;;;;;;;;;;12.50;99.90;;;;;;5074422;28;20483;-65
2021/10/21 00:57:05;;;;;;;;;;;12.50;99.90;;;;;;5070861;28;20385;-65
2021/10/21 00:59:32;;;;;;;;;;;12.60;99.90;;;;;;5072335;28;19916;-65
2021/10/21 01:01:57;;;;;;;;;;;12.60;99.90;;;;;;5072174;28;19917;-65
2021/10/21 01:04:23;;;;;;;;;;;12.60;99.90;;;;;;5073618;28;19920;-65
2021/10/21 01:06:48;;;;;;;;;;;12.60;99.90;;;;;;5073341;28;19927;-67
2021/10/21 01:09:15;;;;;;;;;;;12.60;99.90;;;;;;5072072;28;20001;-66
2021/10/21 01:11:41;;;;;;;;;;;12.60;99.90;;;;;;5071963;28;19916;-66
2021/10/21 01:14:07;;;;;;;;;;;12.60;99.90;;;;;;5071789;28;19927;-67
2021/10/21 01:16:33;;;;;;;;;;;12.60;99.90;;;;;;5072643;28;19920;-66
2021/10/21 01:18:58;;;;;;;;;;;12.60;99.90;;;;;;5071250;28;19916;-67
2021/10/21 01:21:24;;;;;;;;;;;12.60;99.90;;;;;;5069655;28;19924;-66
2021/10/21 01:23:50;;;;;;;;;;;12.60;99.90;;;;;;5071637;28;20487;-65
2021/10/21 01:26:15;;;;;;;;;;;12.60;99.90;;;;;;5072103;28;19926;-65
2021/10/21 01:28:41;;;;;;;;;;;12.60;99.90;;;;;;5074085;28;20026;-65
2021/10/21 01:31:07;;;;;;;;;;;12.60;99.90;;;;;;5071357;28;19924;-65
2021/10/21 01:33:34;;;;;;;;;;;12.60;99.90;;;;;;5071256;28;19970;-65
2021/10/21 01:35:59;;;;;;;;;;;12.60;99.90;;;;;;5052637;28;19925;-65
2021/10/21 01:38:25;;;;;;;;;;;12.60;99.90;;;;;;5066192;28;19922;-65
2021/10/21 01:40:50;;;;;;;;;;;12.60;99.90;;;;;;5072917;28;20399;-66
2021/10/21 01:43:16;;;;;;;;;;;12.60;99.90;;;;;;5070800;28;19963;-65
2021/10/21 01:45:42;;;;;;;;;;;12.60;99.90;;;;;;5073070;28;19920;-65
2021/10/21 01:48:07;;;;;;;;;;;12.60;99.90;;;;;;5069733;28;19920;-65
2021/10/21 01:50:33;;;;;;;;;;;12.60;99.90;;;;;;5071562;28;19942;-65
2021/10/21 01:52:59;;;;;;;;;;;12.60;99.90;;;;;;5069170;28;20378;-65
2021/10/21 01:55:25;;;;;;;;;;;12.60;99.90;;;;;;5069189;28;19916;-65
2021/10/21 01:57:51;;;;;;;;;;;12.60;99.90;;;;;;5072246;28;19920;-65
2021/10/21 02:00:18;;;;;;;;;;;12.60;99.90;;;;;;5070576;28;19924;-65
2021/10/21 02:02:44;;;;;;;;;;;12.60;99.90;;;;;;5071457;28;19955;-65
2021/10/21 02:05:11;;;;;;;;;;;12.60;99.90;;;;;;5070217;28;19965;-65
2021/10/21 02:07:36;;;;;;;;;;;12.60;99.90;;;;;;5069776;28;19927;-65
2021/10/21 02:10:04;;;;;;;;;;;12.60;99.90;;;;;;5072363;28;20269;-65
2021/10/21 02:12:29;;;;;;;;;;;12.60;99.90;;;;;;5073468;28;20006;-65
2021/10/21 02:14:55;;;;;;;;;;;12.60;99.90;;;;;;5072857;28;19999;-65
2021/10/21 02:17:22;;;;;;;;;;;12.60;99.90;;;;;;5072117;28;20156;-65
2021/10/21 02:19:48;;;;;;;;;;;12.60;99.90;;;;;;5072482;28;19916;-65
2021/10/21 02:22:14;;;;;;;;;;;12.60;99.90;;;;;;5070517;28;19943;-65
2021/10/21 02:24:39;;;;;;;;;;;12.60;99.90;;;;;;5060349;28;19920;-66
2021/10/21 02:27:05;;;;;;;;;;;12.60;99.90;;;;;;5072465;28;19965;-65
2021/10/21 02:29:30;;;;;;;;;;;12.50;99.90;;;;;;5071123;28;19928;-65
2021/10/21 02:31:56;;;;;;;;;;;12.50;99.90;;;;;;5072584;28;20003;-64
2021/10/21 02:34:21;;;;;;;;;;;12.50;99.90;;;;;;5072213;28;19924;-64
2021/10/21 02:36:47;;;;;;;;;;;12.60;99.90;;;;;;5069724;28;20286;-64
2021/10/21 02:39:12;;;;;;;;;;;12.60;99.90;;;;;;5072576;28;19916;-64
2021/10/21 02:41:38;;;;;;;;;;;12.80;99.90;;;;;;5070701;28;19916;-64
2021/10/21 02:44:03;;;;;;;;;;;12.90;99.90;;;;;;5070375;28;19916;-64
2021/10/21 02:46:29;;;;;;;;;;;12.80;99.90;;;;;;5069313;28;19972;-65
2021/10/21 02:48:54;;;;;;;;;;;12.90;99.90;;;;;;5066699;28;19920;-64
2021/10/21 02:51:20;;;;;;;;;;;12.70;99.90;;;;;;5069281;28;19920;-64
2021/10/21 02:53:45;;;;;;;;;;;12.70;99.90;;;;;;5071759;28;19947;-64
2021/10/21 02:56:11;;;;;;;;;;;12.60;99.90;;;;;;5068893;28;20000;-64
2021/10/21 02:58:36;;;;;;;;;;;12.50;99.90;;;;;;5063411;28;19970;-64
2021/10/21 03:01:02;;;;;;;;;;;12.30;99.90;;;;;;5068093;28;20007;-64
2021/10/21 03:03:27;;;;;;;;;;;12.30;99.90;;;;;;5069382;28;19970;-65
2021/10/21 03:05:53;;;;;;;;;;;12.30;99.90;;;;;;5070866;28;19942;-65
2021/10/21 03:08:18;;;;;;;;;;;12.20;99.90;;;;;;5066813;28;19924;-65
2021/10/21 03:10:44;;;;;;;;;;;12.10;99.90;;;;;;5071329;28;20320;-65
2021/10/21 03:13:09;;;;;;;;;;;12.00;99.90;;;;;;5071556;28;19920;-64
2021/10/21 03:15:35;;;;;;;;;;;11.90;99.90;;;;;;5071501;28;19921;-64
2021/10/21 03:18:00;;;;;;;;;;;11.90;99.90;;;;;;5071315;28;20557;-64
2021/10/21 03:20:25;;;;;;;;;;;11.80;99.90;;;;;;5070977;28;19916;-64
2021/10/21 03:22:51;;;;;;;;;;;11.70;99.90;;;;;;5071194;28;19920;-64
2021/10/21 03:25:16;;;;;;;;;;;11.60;99.90;;;;;;5069591;28;19916;-64
2021/10/21 03:27:42;;;;;;;;;;;11.80;99.90;;;;;;5075494;28;19924;-64
2021/10/21 03:30:08;;;;;;;;;;;11.80;99.90;;;;;;5070313;28;19920;-64
2021/10/21 03:32:34;;;;;;;;;;;11.80;99.90;;;;;;5071029;28;19920;-63
2021/10/21 03:35:00;;;;;;;;;;;11.70;99.90;;;;;;5069748;28;19916;-63
2021/10/21 03:37:25;;;;;;;;;;;11.70;99.90;;;;;;5071317;28;20015;-63
2021/10/21 03:39:51;;;;;;;;;;;11.60;99.90;;;;;;5070039;28;19920;-64
2021/10/21 03:42:17;;;;;;;;;;;11.50;99.90;;;;;;5069365;28;20010;-64
2021/10/21 03:44:43;;;;;;;;;;;11.50;99.90;;;;;;5052561;28;21626;-64
2021/10/21 03:47:09;;;;;;;;;;;11.60;99.90;;;;;;5071585;28;20007;-64
2021/10/21 03:49:35;;;;;;;;;;;11.50;99.90;;;;;;5070727;28;19917;-64
2021/10/21 03:52:00;;;;;;;;;;;11.60;99.90;;;;;;5070487;28;19924;-64
2021/10/21 03:54:26;;;;;;;;;;;11.60;99.90;;;;;;5053117;28;19981;-64
2021/10/21 03:56:51;;;;;;;;;;;11.50;99.90;;;;;;5051137;28;19971;-64
2021/10/21 03:59:17;;;;;;;;;;;11.50;99.90;;;;;;5065748;28;20428;-64
2021/10/21 04:01:42;;;;;;;;;;;11.70;99.90;;;;;;5064981;28;19960;-64
2021/10/21 04:04:08;;;;;;;;;;;11.60;99.90;;;;;;5071194;28;19920;-63
2021/10/21 04:06:33;;;;;;;;;;;11.60;99.90;;;;;;5071236;28;19916;-63
2021/10/21 04:08:58;;;;;;;;;;;11.50;99.90;;;;;;5071779;28;19952;-63
2021/10/21 04:11:24;;;;;;;;;;;11.50;99.90;;;;;;5067951;28;19921;-63
2021/10/21 04:13:50;;;;;;;;;;;11.60;99.90;;;;;;5071235;28;20365;-63
2021/10/21 04:16:15;;;;;;;;;;;11.50;99.90;;;;;;5069047;28;20072;-63
2021/10/21 04:18:41;;;;;;;;;;;11.60;99.90;;;;;;5068260;28;19927;-63
2021/10/21 04:21:06;;;;;;;;;;;11.70;99.90;;;;;;5050143;28;19916;-64
2021/10/21 04:23:32;;;;;;;;;;;11.60;99.90;;;;;;5070673;28;19939;-63
2021/10/21 04:25:57;;;;;;;;;;;11.60;99.90;;;;;;5070731;28;19922;-63
2021/10/21 04:28:23;;;;;;;;;;;11.50;99.90;;;;;;5058848;28;20349;-63
2021/10/21 04:30:48;;;;;;;;;;;11.70;99.90;;;;;;5068923;28;19923;-64
2021/10/21 04:33:14;;;;;;;;;;;11.60;99.90;;;;;;5067616;28;19927;-64
2021/10/21 04:35:39;;;;;;;;;;;11.60;99.90;;;;;;5066035;28;20410;-64
2021/10/21 04:38:05;;;;;;;;;;;11.60;99.90;;;;;;5057871;28;20003;-64
2021/10/21 04:40:31;;;;;;;;;;;11.60;99.90;;;;;;5067667;28;19916;-64
2021/10/21 04:42:57;;;;;;;;;;;11.70;99.90;;;;;;5070028;28;19916;-64
2021/10/21 04:45:22;;;;;;;;;;;11.70;99.90;;;;;;5070571;28;20289;-64
2021/10/21 04:47:48;;;;;;;;;;;11.80;99.90;;;;;;5070934;28;19920;-63
2021/10/21 04:50:13;;;;;;;;;;;12.00;99.90;;;;;;5068862;28;19927;-64
2021/10/21 04:52:39;;;;;;;;;;;12.00;99.90;;;;;;5070200;28;19923;-64
2021/10/21 04:55:08;;;;;;;;;;;11.90;99.90;;;;;;5068737;28;19916;-65
2021/10/21 04:57:33;;;;;;;;;;;11.80;99.90;;;;;;5051332;28;19966;-65
2021/10/21 04:59:59;;;;;;;;;;;11.90;99.90;;;;;;5074706;28;19959;-64
2021/10/21 05:02:24;;;;;;;;;;;11.70;99.90;;;;;;5074193;28;20035;-64
2021/10/21 05:04:50;;;;;;;;;;;11.70;99.90;;;;;;5070321;28;19920;-64
2021/10/21 05:07:15;;;;;;;;;;;11.60;99.90;;;;;;5074126;28;19970;-65
2021/10/21 05:09:41;;;;;;;;;;;11.50;99.90;;;;;;5073080;28;19924;-65
2021/10/21 05:12:06;;;;;;;;;;;11.60;99.90;;;;;;5069887;28;20385;-66
2021/10/21 05:14:32;;;;;;;;;;;11.50;99.90;;;;;;5072546;28;19917;-66
2021/10/21 05:16:57;;;;;;;;;;;11.50;99.90;;;;;;5056279;28;20007;-66
2021/10/21 05:19:23;;;;;;;;;;;11.40;99.90;;;;;;5053759;28;19917;-67
2021/10/21 05:21:48;;;;;;;;;;;11.20;99.90;;;;;;5067777;28;19916;-67
2021/10/21 05:24:14;;;;;;;;;;;11.10;99.90;;;;;;5069261;28;19923;-67
2021/10/21 05:26:39;;;;;;;;;;;11.10;99.90;;;;;;5072177;28;19966;-67
2021/10/21 05:29:05;;;;;;;;;;;10.80;99.90;;;;;;5070229;28;19921;-68
2021/10/21 05:31:30;;;;;;;;;;;10.60;99.90;;;;;;5071937;28;20408;-67
2021/10/21 05:33:56;;;;;;;;;;;10.50;99.90;;;;;;5071510;28;19991;-68
2021/10/21 05:36:21;;;;;;;;;;;10.40;99.90;;;;;;5068937;28;19924;-68
2021/10/21 05:38:48;;;;;;;;;;;10.20;99.90;;;;;;5062231;28;19962;-68
2021/10/21 05:41:13;;;;;;;;;;;10.30;99.90;;;;;;5067486;28;19924;-68
2021/10/21 05:43:39;;;;;;;;;;;10.30;99.90;;;;;;5064375;28;20274;-68
2021/10/21 05:46:04;;;;;;;;;;;10.20;99.90;;;;;;5071501;28;19924;-69
2021/10/21 05:48:30;;;;;;;;;;;10.10;99.90;;;;;;5076138;28;19916;-69
2021/10/21 05:50:55;;;;;;;;;;;10.10;99.90;;;;;;5071565;28;20354;-68
2021/10/21 05:53:21;;;;;;;;;;;10.00;99.90;;;;;;5070634;28;19920;-69
2021/10/21 05:55:46;;;;;;;;;;;10.00;99.90;;;;;;5055396;28;19916;-69
2021/10/21 05:58:13;;;;;;;;;;;10.00;99.90;;;;;;5053358;28;19916;-68
2021/10/21 06:00:39;;;;;;;;;;;9.90;99.90;;;;;;5068683;28;19946;-68
2021/10/21 06:03:04;;;;;;;;;;;9.90;99.90;;;;;;5071761;28;19920;-68
2021/10/21 06:05:30;;;;;;;;;;;9.90;99.90;;;;;;5071215;28;20377;-68
2021/10/21 06:07:56;;;;;;;;;;;9.80;99.90;;;;;;5071360;28;19920;-69
2021/10/21 06:10:22;;;;;;;;;;;9.80;99.90;;;;;;5071719;28;19928;-68
2021/10/21 06:12:50;;;;;;;;;;;9.70;99.90;;;;;;5071796;28;19917;-68
2021/10/21 06:15:17;;;;;;;;;;;9.80;99.90;;;;;;5071422;28;20014;-69
2021/10/21 06:17:43;;;;;;;;;;;9.80;99.90;;;;;;5071421;28;19920;-68
2021/10/21 06:20:12;;;;;;;;;;;9.80;99.90;;;;;;5071131;28;19986;-69
2021/10/21 06:22:38;;;;;;;;;;;9.70;99.90;;;;;;5054708;28;19916;-69
2021/10/21 06:25:07;;;;;;;;;;;9.80;99.90;;;;;;5071364;28;19943;-69
2021/10/21 06:27:32;;;;;;;;;;;9.80;99.90;;;;;;5054949;28;19922;-70
2021/10/21 06:29:58;;;;;;;;;;;9.80;99.90;;;;;;5070820;28;20289;-70
2021/10/21 06:32:24;;;;;;;;;;;9.80;99.90;;;;;;5071365;28;19920;-70
2021/10/21 06:34:49;;;;;;;;;;;9.80;99.90;;;;;;5070697;28;20011;-69
2021/10/21 06:37:14;;;;;;;;;;;9.90;99.90;;;;;;5070733;28;19954;-69
2021/10/21 06:39:41;;;;;;;;;;;9.90;99.90;;;;;;5070585;28;20439;-70
2021/10/21 06:42:06;;;;;;;;;;;9.90;99.90;;;;;;5070164;28;20012;-70
2021/10/21 06:44:31;;;;;;;;;;;10.00;99.90;;;;;;5070934;28;19924;-70
2021/10/21 06:46:57;;;;;;;;;;;10.00;99.90;;;;;;5070362;28;19977;-70
2021/10/21 06:49:23;;;;;;;;;;;10.10;99.90;;;;;;5070950;28;19920;-70
2021/10/21 06:51:49;;;;;;;;;;;10.10;99.90;;;;;;5071052;28;20037;-70
2021/10/21 06:54:14;;;;;;;;;;;10.10;99.90;;;;;;5069712;28;20007;-70
2021/10/21 06:56:39;;;;;;;;;;;10.20;99.90;;;;;;5064900;28;19927;-69
2021/10/21 06:59:05;;;;;;;;;;;10.20;99.90;;;;;;5070396;28;19916;-69
2021/10/21 07:01:30;;;;;;;;;;;10.20;99.90;;;;;;5054371;28;19920;-69
2021/10/21 07:03:57;;;;;;;;;;;10.30;99.90;;;;;;5070903;28;20542;-69
2021/10/21 07:06:22;;;;;;;;;;;10.30;99.90;;;;;;5070535;28;19923;-69
2021/10/21 07:08:48;;;;;;;;;;;10.30;99.90;;;;;;5070817;28;19916;-69
2021/10/21 07:11:13;;;;;;;;;;;10.30;99.90;;;;;;5070438;28;20427;-69
2021/10/21 07:13:39;;;;;;;;;;;10.30;99.90;;;;;;5070691;28;19916;-69
2021/10/21 07:16:05;;;;;;;;;;;10.30;99.90;;;;;;5070480;28;20008;-69
2021/10/21 07:18:32;;;;;;;;;;;10.30;99.90;;;;;;5069883;28;19920;-69
2021/10/21 07:20:58;;;;;;;;;;;10.30;99.90;;;;;;5070795;28;19923;-69
2021/10/21 07:23:23;;;;;;;;;;;10.40;99.90;;;;;;5070969;28;20658;-69
2021/10/21 07:25:49;;;;;;;;;;;10.40;99.90;;;;;;5070393;28;20012;-69
2021/10/21 07:28:14;;;;;;;;;;;10.50;99.90;;;;;;5070818;28;19923;-69
2021/10/21 07:30:40;;;;;;;;;;;10.50;99.90;;;;;;5071513;28;19962;-69
2021/10/21 07:33:05;;;;;;;;;;;10.60;99.90;;;;;;5070776;28;19995;-70
2021/10/21 07:35:31;;;;;;;;;;;10.60;99.90;;;;;;5070424;28;19916;-69
2021/10/21 07:38:01;;;;;;;;;;;10.70;99.90;;;;;;5070471;28;19920;-69
2021/10/21 07:40:27;;;;;;;;;;;10.70;99.90;;;;;;5070630;28;19968;-69
2021/10/21 07:42:52;;;;;;;;;;;10.70;99.90;;;;;;5069891;28;20349;-69
2021/10/21 07:45:19;;;;;;;;;;;10.70;99.90;;;;;;5071868;28;19916;-69
2021/10/21 07:47:44;;;;;;;;;;;10.80;99.90;;;;;;5071870;28;19920;-69
2021/10/21 07:50:10;;;;;;;;;;;10.90;99.90;;;;;;5065740;28;19982;-69
2021/10/21 07:52:37;;;;;;;;;;;11.00;99.90;;;;;;5064802;28;20265;-69
2021/10/21 07:55:05;;;;;;;;;;;11.00;99.90;;;;;;5066016;28;19924;-69
2021/10/21 07:57:30;;;;;;;;;;;11.00;99.90;;;;;;5070495;28;19939;-69
2021/10/21 07:59:56;;;;;;;;;;;11.10;99.90;;;;;;5069603;28;19924;-69
2021/10/21 08:02:21;;;;;;;;;;;11.10;99.90;;;;;;5070117;28;20313;-69
2021/10/21 08:04:47;;;;;;;;;;;11.20;99.90;;;;;;5069761;28;19995;-68
2021/10/21 08:07:13;;;;;;;;;;;11.20;99.90;;;;;;5067001;28;19921;-68
2021/10/21 08:09:38;;;;;;;;;;;11.30;99.90;;;;;;5067037;28;19923;-69
2021/10/21 08:12:05;;;;;;;;;;;11.30;99.90;;;;;;5068250;28;19924;-69
2021/10/21 08:14:31;;;;;;;;;;;11.30;99.90;;;;;;5066978;28;19916;-69
2021/10/21 08:16:58;;;;;;;;;;;11.40;99.90;;;;;;5037058;28;19928;-69
2021/10/21 08:19:24;;;;;;;;;;;11.30;99.90;;;;;;5065524;28;20362;-69
2021/10/21 08:21:50;;;;;;;;;;;11.30;99.90;;;;;;5072439;23;19921;-69
2021/10/21 08:24:19;;;;;;;;;;;11.30;99.90;;;;;;5049169;28;19917;-69
2021/10/21 08:26:46;;;;;;;;;;;11.30;99.90;;;;;;5049658;28;20357;-69
2021/10/21 08:29:11;;;;;;;;;;;11.30;99.90;;;;;;5050416;28;20110;-68
2021/10/21 08:31:37;;;;;;;;;;;11.40;99.90;;;;;;5053056;28;20029;-69
2021/10/21 08:34:03;;;;;;;;;;;11.60;99.90;;;;;;5037023;28;19920;-68
2021/10/21 08:36:28;;;;;;;;;;;11.70;99.90;;;;;;5053279;28;20070;-68
2021/10/21 08:38:54;;;;;;;;;;;11.70;99.90;;;;;;5053072;28;20401;-68
2021/10/21 08:41:20;;;;;;;;;;;11.70;99.90;;;;;;5053262;28;19924;-69
2021/10/21 08:43:47;;;;;;;;;;;11.90;99.90;;;;;;5036978;28;20317;-69
2021/10/21 08:46:13;;;;;;;;;;;11.90;99.90;;;;;;5053466;28;19921;-68
2021/10/21 08:48:44;;;;;;;;;;;12.10;99.90;;;;;;5053447;28;20007;-69
2021/10/21 08:51:09;;;;;;;;;;;11.80;99.90;;;;;;5045544;28;19916;-68
2021/10/21 08:53:35;;;;;;;;;;;11.70;99.90;;;;;;5052867;28;20480;-69
2021/10/21 08:56:01;;;;;;;;;;;11.40;99.90;;;;;;5051443;28;19917;-69
2021/10/21 08:58:27;;;;;;;;;;;11.20;99.90;;;;;;5052781;28;19916;-69
2021/10/21 09:01:17;;;;;;;;;;;11.30;99.90;;;;;;5052757;28;20289;-69
2021/10/21 09:03:53;;;;;;;;;;;11.20;99.90;;;;;;5053441;28;19927;-69
2021/10/21 09:08:50;;;;;;;;;;;11.20;99.90;;;;;;5052359;28;19921;-68
2021/10/21 09:11:23;;;;;;;;;;;11.20;99.90;;;;;;5051924;28;19966;-68
2021/10/21 09:14:04;;;;;;;;;;;11.10;99.90;;;;;;5051691;28;20318;-70
2021/10/21 09:16:30;;;;;;;;;;;11.10;99.90;;;;;;5052004;28;19972;-69
2021/10/21 09:18:56;;;;;;;;;;;11.10;99.90;;;;;;5051746;28;20395;-70
2021/10/21 09:21:31;;;;;;;;;;;11.10;99.90;;;;;;5051529;28;19916;-69
2021/10/21 09:24:15;;;;;;;;;;;11.10;99.90;;;;;;5051458;28;19967;-69
2021/10/21 09:27:00;;;;;;;;;;;11.00;99.90;;;;;;5032150;28;19928;-69
2021/10/21 09:29:25;;;;;;;;;;;11.10;99.90;;;;;;5038831;28;19917;-69
2021/10/21 09:32:06;;;;;;;;;;;11.10;99.90;;;;;;5034928;28;20684;-69
2021/10/21 09:34:40;;;;;;;;;;;11.10;99.90;;;;;;5052041;28;19917;-69
2021/10/21 09:37:06;;;;;;;;;;;11.20;99.90;;;;;;5052081;28;19921;-69
2021/10/21 09:39:42;;;;;;;;;;;11.30;99.90;;;;;;5051930;28;19927;-69
2021/10/21 09:42:08;;;;;;;;;;;11.40;99.90;;;;;;5051213;28;19920;-69
2021/10/21 09:44:34;;;;;;;;;;;11.50;99.90;;;;;;5051997;28;20298;-69
2021/10/21 09:47:12;;;;;;;;;;;11.60;99.90;;;;;;5051793;28;19970;-69
2021/10/21 09:49:39;;;;;;;;;;;11.60;99.90;;;;;;5052385;28;19920;-69
2021/10/21 09:52:13;;;;;;;;;;;11.60;99.90;;;;;;5035418;28;20370;-69
2021/10/21 09:54:39;;;;;;;;;;;11.60;99.90;;;;;;5035024;28;20711;-69
2021/10/21 09:57:05;;;;;;;;;;;11.70;99.90;;;;;;5050920;28;19930;-69
2021/10/21 09:59:30;;;;;;;;;;;11.70;99.90;;;;;;5052935;28;20023;-69
2021/10/21 10:02:04;;;;;;;;;;;11.70;99.90;;;;;;5051606;28;19940;-69
2021/10/21 10:04:30;;;;;;;;;;;11.70;99.90;;;;;;5051338;28;19959;-69
2021/10/21 10:06:58;;;;;;;;;;;11.70;99.90;;;;;;5051598;28;20471;-69
2021/10/21 10:09:31;;;;;;;;;;;11.60;99.90;;;;;;5052615;28;19921;-69
2021/10/21 10:11:57;;;;;;;;;;;11.60;99.90;;;;;;5051598;28;19944;-69
2021/10/21 10:14:23;;;;;;;;;;;11.50;99.90;;;;;;5051242;28;20361;-69
2021/10/21 10:16:50;;;;;;;;;;;11.40;99.90;;;;;;5052528;28;20019;-69
2021/10/21 10:19:15;;;;;;;;;;;11.40;99.90;;;;;;5051265;28;20000;-69
2021/10/21 10:21:41;;;;;;;;;;;11.30;99.90;;;;;;5051091;28;20003;-70
2021/10/21 10:24:11;;;;;;;;;;;11.30;99.90;;;;;;5051202;28;19917;-70
2021/10/21 10:26:39;;;;;;;;;;;11.20;99.90;;;;;;5034855;28;20389;-69
2021/10/21 10:29:05;;;;;;;;;;;11.10;99.90;;;;;;5051225;28;19921;-70
2021/10/21 10:31:41;;;;;;;;;;;11.00;99.90;;;;;;5034616;28;19916;-70
2021/10/21 10:34:07;;;;;;;;;;;11.00;99.90;;;;;;5051281;28;20517;-70
2021/10/21 10:36:32;;;;;;;;;;;10.80;99.90;;;;;;5051394;28;19951;-70
2021/10/21 10:38:59;;;;;;;;;;;10.80;99.90;;;;;;5050997;28;19996;-70
2021/10/21 10:41:45;;;;;;;;;;;10.80;99.90;;;;;;5034417;28;19923;-69
2021/10/21 10:44:11;;;;;;;;;;;10.70;99.90;;;;;;5051102;28;19922;-69
2021/10/21 10:46:51;;;;;;;;;;;10.60;99.90;;;;;;5050853;28;19920;-69
2021/10/21 10:49:35;;;;;;;;;;;10.70;99.90;;;;;;5050634;28;19921;-69
2021/10/21 10:52:00;;;;;;;;;;;10.50;99.90;;;;;;5033910;28;19927;-69
2021/10/21 10:54:46;;;;;;;;;;;10.50;99.90;;;;;;5049960;28;20325;-69
2021/10/21 10:57:13;;;;;;;;;;;10.50;99.90;;;;;;5037844;28;20341;-69
2021/10/21 10:59:39;;;;;;;;;;;10.40;99.90;;;;;;5050254;28;19916;-69
2021/10/21 11:02:24;;;;;;;;;;;10.40;99.90;;;;;;5050715;28;20031;-69
2021/10/21 11:04:56;;;;;;;;;;;10.50;99.90;;;;;;5050520;28;19924;-70
2021/10/21 11:07:24;;;;;;;;;;;10.50;99.90;;;;;;5050329;28;20431;-69
2021/10/21 11:09:51;;;;;;;;;;;10.50;99.90;;;;;;5050436;28;20002;-69
2021/10/21 11:12:19;;;;;;;;;;;10.50;99.90;;;;;;5050591;28;19917;-69
2021/10/21 11:14:47;;;;;;;;;;;10.50;99.90;;;;;;5050155;28;19964;-69
2021/10/21 11:17:33;;;;;;;;;;;10.40;99.90;;;;;;5033865;28;19931;-70
2021/10/21 11:19:58;;;;;;;;;;;10.50;99.90;;;;;;5083773;28;19995;-69
2021/10/21 11:22:24;;;;;;;;;;;10.40;99.90;;;;;;5033190;28;19944;-69
2021/10/21 11:24:50;;;;;;;;;;;10.40;99.90;;;;;;5049743;28;20334;-69
2021/10/21 11:27:17;;;;;;;;;;;10.50;99.90;;;;;;5050384;28;19999;-69
2021/10/21 11:29:43;;;;;;;;;;;10.50;99.90;;;;;;5050027;28;19948;-69
2021/10/21 11:32:10;;;;;;;;;;;10.60;99.90;;;;;;5033854;28;20298;-69
2021/10/21 11:34:35;;;;;;;;;;;10.60;99.90;;;;;;5050049;28;20464;-69
2021/10/21 11:37:01;;;;;;;;;;;10.70;99.90;;;;;;5049937;28;19975;-69
2021/10/21 11:39:30;;;;;;;;;;;10.90;99.90;;;;;;5049654;28;19917;-70
2021/10/21 11:41:56;;;;;;;;;;;11.00;99.90;;;;;;5049931;28;19924;-69
2021/10/21 11:44:22;;;;;;;;;;;11.00;99.90;;;;;;5049855;28;19917;-69
2021/10/21 11:46:57;;;;;;;;;;;11.00;99.90;;;;;;5049893;28;19921;-69
2021/10/21 11:49:26;;;;;;;;;;;10.90;99.90;;;;;;5033582;28;20310;-69
2021/10/21 11:52:03;;;;;;;;;;;10.80;99.90;;;;;;5033602;28;20346;-69
2021/10/21 11:54:28;;;;;;;;;;;10.80;99.90;;;;;;5030253;28;20283;-69
2021/10/21 11:56:54;;;;;;;;;;;10.80;99.90;;;;;;5034258;28;19921;-69
2021/10/21 11:59:35;;;;;;;;;;;10.70;99.90;;;;;;5031889;28;19960;-69
2021/10/21 12:02:11;;;;;;;;;;;10.60;99.90;;;;;;5050018;28;19924;-69
2021/10/21 12:04:42;;;;;;;;;;;10.50;99.90;;;;;;5034890;28;20278;-69
2021/10/21 12:07:09;;;;;;;;;;;10.50;99.90;;;;;;5037436;28;20019;-70
2021/10/21 12:09:35;;;;;;;;;;;10.40;99.90;;;;;;5053994;28;19920;-70
2021/10/21 12:12:07;;;;;;;;;;;10.40;99.90;;;;;;5053982;28;19916;-69
2021/10/21 12:14:34;;;;;;;;;;;10.40;99.90;;;;;;5053817;28;19970;-69
2021/10/21 12:16:59;;;;;;;;;;;10.40;99.90;;;;;;5053668;28;19925;-69
2021/10/21 12:19:26;;;;;;;;;;;10.40;99.90;;;;;;5053921;28;19924;-69
2021/10/21 12:22:01;;;;;;;;;;;10.50;99.90;;;;;;5042393;28;19931;-69
2021/10/21 12:24:26;;;;;;;;;;;10.50;99.90;;;;;;5033877;28;19921;-68
2021/10/21 12:26:53;;;;;;;;;;;10.60;99.90;;;;;;5033671;28;19917;-69
2021/10/21 12:29:18;;;;;;;;;;;10.50;99.90;;;;;;5033677;28;19917;-69
2021/10/21 12:31:47;;;;;;;;;;;10.70;99.90;;;;;;5038762;28;19927;-69
2021/10/21 12:34:21;;;;;;;;;;;10.80;99.90;;;;;;5053525;28;19920;-69
2021/10/21 12:36:47;;;;;;;;;;;10.80;99.90;;;;;;5053136;28;19924;-69
2021/10/21 12:39:15;;;;;;;;;;;10.90;99.90;;;;;;5053788;28;20249;-69
2021/10/21 12:42:07;;;;;;;;;;;10.90;99.90;;;;;;5053342;28;19921;-68
2021/10/21 12:44:34;;;;;;;;;;;10.90;99.90;;;;;;5050889;28;19931;-70
2021/10/21 12:47:25;;;;;;;;;;;10.80;99.90;;;;;;5053620;28;19923;-69
2021/10/21 12:49:58;;;;;;;;;;;10.70;99.90;;;;;;5036716;28;20433;-69
2021/10/21 12:52:49;;;;;;;;;;;10.70;99.90;;;;;;5049457;28;19925;-69
2021/10/21 12:55:16;;;;;;;;;;;10.70;99.90;;;;;;5044470;28;19928;-69
2021/10/21 12:57:47;;;;;;;;;;;10.70;99.90;;;;;;5052598;28;19928;-69
2021/10/21 13:00:13;;;;;;;;;;;10.70;99.90;;;;;;5051952;28;20679;-69
2021/10/21 13:02:39;;;;;;;;;;;10.50;99.90;;;;;;5052916;28;19970;-69
2021/10/21 13:05:05;;;;;;;;;;;10.70;99.90;;;;;;5053182;28;19956;-69
2021/10/21 13:07:30;;;;;;;;;;;10.60;99.90;;;;;;5036500;28;20107;-69
2021/10/21 13:09:56;;;;;;;;;;;10.60;99.90;;;;;;5053089;28;19917;-69
2021/10/21 13:12:22;;;;;;;;;;;10.60;99.90;;;;;;5054406;28;19928;-69
2021/10/21 13:14:53;;;;;;;;;;;10.60;99.90;;;;;;5036611;28;20377;-69
2021/10/21 13:17:19;;;;;;;;;;;10.60;99.90;;;;;;5051664;28;19924;-69
2021/10/21 13:19:45;;;;;;;;;;;10.70;99.90;;;;;;5053091;28;19916;-69
2021/10/21 13:22:12;;;;;;;;;;;10.70;99.90;;;;;;5052618;28;19928;-69
2021/10/21 13:24:38;;;;;;;;;;;10.70;99.90;;;;;;5052830;28;19916;-69
2021/10/21 13:27:04;;;;;;;;;;;10.70;99.90;;;;;;5052743;28;19916;-69
2021/10/21 13:29:30;;;;;;;;;;;10.80;99.90;;;;;;5085991;28;20412;-69
2021/10/21 13:31:57;;;;;;;;;;;10.80;99.90;;;;;;5051792;28;19974;-69
2021/10/21 13:34:23;;;;;;;;;;;10.80;99.90;;;;;;5052899;28;19942;-69
2021/10/21 13:36:48;;;;;;;;;;;10.90;99.90;;;;;;5035829;28;19924;-69
2021/10/21 13:39:15;;;;;;;;;;;10.90;99.90;;;;;;5050820;28;20438;-69
2021/10/21 13:41:40;;;;;;;;;;;10.80;99.90;;;;;;5035598;28;19966;-69
2021/10/21 13:44:06;;;;;;;;;;;10.70;99.90;;;;;;5049885;28;19917;-69
2021/10/21 13:46:32;;;;;;;;;;;10.70;99.90;;;;;;5052244;28;19940;-69
2021/10/21 13:48:57;;;;;;;;;;;10.60;99.90;;;;;;5051842;28;19925;-69
2021/10/21 13:51:23;;;;;;;;;;;10.60;99.90;;;;;;5034797;28;20569;-69
2021/10/21 13:53:49;;;;;;;;;;;10.60;99.90;;;;;;5030091;28;20414;-69
2021/10/21 13:56:15;;;;;;;;;;;10.60;99.90;;;;;;5016512;28;20339;-69
2021/10/21 13:58:41;;;;;;;;;;;10.70;99.90;;;;;;5051683;28;19916;-69
2021/10/21 14:01:07;;;;;;;;;;;10.60;99.90;;;;;;5050938;28;19981;-69
2021/10/21 14:03:32;;;;;;;;;;;10.60;99.90;;;;;;5035175;28;19921;-70
2021/10/21 14:05:58;;;;;;;;;;;10.70;99.90;;;;;;5052017;28;19916;-69
2021/10/21 14:08:24;;;;;;;;;;;10.70;99.90;;;;;;5052124;28;19927;-69
2021/10/21 14:10:50;;;;;;;;;;;11.00;99.90;;;;;;5049066;28;19986;-69
2021/10/21 14:13:15;;;;;;;;;;;10.90;99.90;;;;;;5050209;28;19925;-68
2021/10/21 14:15:41;;;;;;;;;;;11.00;99.90;;;;;;5051680;28;19951;-69
2021/10/21 14:18:07;;;;;;;;;;;11.00;99.90;;;;;;5051440;28;20011;-69
2021/10/21 14:20:32;;;;;;;;;;;11.10;99.90;;;;;;5050842;28;19921;-69